createdAt,value
2023-01-31T00:00:26.480Z,17.67
2023-01-31T00:02:52.855Z,17.98
2023-01-31T00:05:20.491Z,14.57
2023-01-31T00:07:47.839Z,15.40
2023-01-31T00:10:14.502Z,20.55
2023-01-31T00:12:40.883Z,18.30
2023-01-31T00:15:07.570Z,21.58
2023-01-31T00:17:33.907Z,11.30
2023-01-31T00:20:00.357Z,25.45
2023-01-31T00:22:26.772Z,18.02
2023-01-31T00:24:53.197Z,22.95
2023-01-31T00:27:19.766Z,17.20
2023-01-31T00:29:46.124Z,15.07
2023-01-31T00:32:12.495Z,16.15
2023-01-31T00:34:38.852Z,13.45
2023-01-31T00:37:05.378Z,15.80
2023-01-31T00:39:31.724Z,12.18
2023-01-31T00:41:58.105Z,12.90
2023-01-31T00:44:24.514Z,18.73
2023-01-31T00:46:51.011Z,15.57
2023-01-31T00:49:17.370Z,23.48
2023-01-31T00:51:44.829Z,15.32
2023-01-31T00:54:11.354Z,14.13
2023-01-31T00:56:38.374Z,13.68
2023-01-31T00:59:08.503Z,15.30
2023-01-31T01:01:35.980Z,9.65
2023-01-31T01:04:02.601Z,14.73
2023-01-31T01:06:29.163Z,14.65
2023-01-31T01:08:56.375Z,15.07
2023-01-31T01:11:24.549Z,18.17
2023-01-31T01:13:51.220Z,19.00
2023-01-31T01:16:21.408Z,17.60
2023-01-31T01:18:49.231Z,20.95
2023-01-31T01:21:23.207Z,16.50
2023-01-31T01:23:49.842Z,20.63
2023-01-31T01:26:16.197Z,14.75
2023-01-31T01:28:42.778Z,12.70
2023-01-31T01:31:09.914Z,18.13
2023-01-31T01:33:36.697Z,13.02
2023-01-31T01:36:04.307Z,22.75
2023-01-31T01:38:31.352Z,14.43
2023-01-31T01:40:57.716Z,12.85
2023-01-31T01:43:39.057Z,13.23
2023-01-31T01:46:05.407Z,17.65
2023-01-31T01:48:32.496Z,12.27
2023-01-31T01:50:59.369Z,15.65
2023-01-31T01:53:28.329Z,12.07
2023-01-31T01:56:01.391Z,10.90
2023-01-31T01:58:48.015Z,14.48
2023-01-31T02:01:16.785Z,8.32
2023-01-31T02:03:44.957Z,10.25
2023-01-31T02:06:11.659Z,15.95
2023-01-31T02:08:39.648Z,11.13
2023-01-31T02:11:05.931Z,7.95
2023-01-31T02:13:34.568Z,12.27
2023-01-31T02:16:00.962Z,14.75
2023-01-31T02:18:27.951Z,10.18
2023-01-31T02:20:54.306Z,20.73
2023-01-31T02:23:20.772Z,12.23
2023-01-31T02:25:53.074Z,7.32
2023-01-31T02:28:28.857Z,16.75
2023-01-31T02:31:13.776Z,10.10
2023-01-31T02:33:51.586Z,10.97
2023-01-31T02:36:17.938Z,17.13
2023-01-31T02:39:06.951Z,12.25
2023-01-31T02:41:42.195Z,25.10
2023-01-31T02:44:30.287Z,10.27
2023-01-31T02:47:11.679Z,11.32
2023-01-31T02:49:46.383Z,17.67
2023-01-31T02:52:16.295Z,16.85
2023-01-31T02:55:24.844Z,16.42
2023-01-31T02:57:53.098Z,18.45
2023-01-31T03:00:20.008Z,20.42
2023-01-31T03:02:46.524Z,15.63
2023-01-31T03:05:16.813Z,10.63
2023-01-31T03:07:46.400Z,20.45
2023-01-31T03:10:12.831Z,15.52
2023-01-31T03:12:39.175Z,11.93
2023-01-31T03:15:25.807Z,13.20
2023-01-31T03:17:58.357Z,22.63
2023-01-31T03:20:24.672Z,19.38
2023-01-31T03:22:53.483Z,19.98
2023-01-31T03:25:22.579Z,10.07
2023-01-31T03:27:52.727Z,14.30
2023-01-31T03:30:22.411Z,18.20
2023-01-31T03:33:04.019Z,13.57
2023-01-31T03:35:31.941Z,13.57
2023-01-31T03:38:06.331Z,16.13
2023-01-31T03:40:41.443Z,11.02
2023-01-31T03:43:31.868Z,18.65
2023-01-31T03:46:11.728Z,15.50
2023-01-31T03:48:41.366Z,16.20
2023-01-31T03:51:09.519Z,16.50
2023-01-31T03:53:41.444Z,14.77
2023-01-31T03:56:17.923Z,18.70
2023-01-31T03:58:47.631Z,13.13
2023-01-31T04:01:15.274Z,13.85
2023-01-31T04:03:44.065Z,18.10
2023-01-31T04:06:10.711Z,19.40
2023-01-31T04:08:37.398Z,11.55
2023-01-31T04:11:05.357Z,15.20
2023-01-31T04:13:32.220Z,14.00
2023-01-31T04:15:58.656Z,19.45
2023-01-31T04:18:25.059Z,13.88
2023-01-31T04:20:51.512Z,20.58
2023-01-31T04:23:18.903Z,12.05
2023-01-31T04:25:45.581Z,16.50
2023-01-31T04:28:12.142Z,10.68
2023-01-31T04:30:38.513Z,17.80
2023-01-31T04:33:04.877Z,16.10
2023-01-31T04:35:32.001Z,10.68
2023-01-31T04:37:58.490Z,15.25
2023-01-31T04:40:24.893Z,14.50
2023-01-31T04:42:51.309Z,14.30
2023-01-31T04:45:18.078Z,19.13
2023-01-31T04:47:44.757Z,16.00
2023-01-31T04:50:11.292Z,15.30
2023-01-31T04:52:37.772Z,15.20
2023-01-31T04:55:04.314Z,19.38
2023-01-31T04:57:30.938Z,8.90
2023-01-31T04:59:57.278Z,11.52
2023-01-31T05:02:23.775Z,6.18
2023-01-31T05:04:50.279Z,12.63
2023-01-31T05:07:16.606Z,14.70
2023-01-31T05:09:44.007Z,13.02
2023-01-31T05:12:10.403Z,17.27
2023-01-31T05:14:36.990Z,19.60
2023-01-31T05:17:03.522Z,13.10
2023-01-31T05:19:29.852Z,8.07
2023-01-31T05:21:58.996Z,11.70
2023-01-31T05:24:26.945Z,15.57
2023-01-31T05:26:56.624Z,17.52
2023-01-31T05:29:23.219Z,18.88
2023-01-31T05:31:57.045Z,9.10
2023-01-31T05:34:25.312Z,11.20
2023-01-31T05:36:52.173Z,13.25
2023-01-31T05:39:18.568Z,14.50
2023-01-31T05:41:45.053Z,13.77
2023-01-31T05:44:11.592Z,16.25
2023-01-31T05:46:38.365Z,12.85
2023-01-31T05:49:04.926Z,19.52
2023-01-31T05:51:31.400Z,7.13
2023-01-31T05:53:57.786Z,14.38
2023-01-31T05:56:24.171Z,16.13
2023-01-31T05:58:51.124Z,19.45
2023-01-31T06:01:18.188Z,11.57
2023-01-31T06:03:44.558Z,14.52
2023-01-31T06:06:10.967Z,13.52
2023-01-31T06:08:37.289Z,27.35
2023-01-31T06:11:07.266Z,13.88
2023-01-31T06:13:33.859Z,13.85
2023-01-31T06:16:00.741Z,14.75
2023-01-31T06:18:27.177Z,19.95
2023-01-31T06:20:53.538Z,13.93
2023-01-31T06:23:19.987Z,11.38
2023-01-31T06:25:55.770Z,12.98
2023-01-31T06:28:22.552Z,13.35
2023-01-31T06:30:49.260Z,9.80
2023-01-31T06:33:15.736Z,11.23
2023-01-31T06:35:42.065Z,14.18
2023-01-31T06:38:09.063Z,16.27
2023-01-31T06:40:36.553Z,10.48
2023-01-31T06:43:02.945Z,23.17
2023-01-31T06:45:29.452Z,19.02
2023-01-31T06:47:56.112Z,15.75
2023-01-31T06:50:23.028Z,15.88
2023-01-31T06:52:49.345Z,17.30
2023-01-31T06:55:15.804Z,17.98
2023-01-31T06:57:48.865Z,15.57
2023-01-31T07:00:15.999Z,12.90
2023-01-31T07:02:42.399Z,19.48
2023-01-31T07:05:08.928Z,9.20
2023-01-31T07:07:35.271Z,15.73
2023-01-31T07:10:01.677Z,10.90
2023-01-31T07:12:28.136Z,14.25
2023-01-31T07:14:54.613Z,10.20
2023-01-31T07:17:21.192Z,14.63
2023-01-31T07:19:47.647Z,16.10
2023-01-31T07:22:14.084Z,14.27
2023-01-31T07:24:40.562Z,12.55
2023-01-31T07:27:07.097Z,9.38
2023-01-31T07:29:33.614Z,11.35
2023-01-31T07:32:00.189Z,11.93
2023-01-31T07:34:26.695Z,10.82
2023-01-31T07:36:53.096Z,11.75
2023-01-31T07:39:19.639Z,13.57
2023-01-31T07:41:45.956Z,8.27
2023-01-31T07:44:12.333Z,12.90
2023-01-31T07:46:40.172Z,17.02
2023-01-31T07:49:06.819Z,11.70
2023-01-31T07:51:33.330Z,13.15
2023-01-31T07:53:59.715Z,11.73
2023-01-31T07:56:26.090Z,14.02
2023-01-31T07:58:52.428Z,14.20
2023-01-31T08:01:38.570Z,14.15
2023-01-31T08:04:19.940Z,16.00
2023-01-31T08:06:48.210Z,11.57
2023-01-31T08:09:14.719Z,10.65
2023-01-31T08:11:41.166Z,12.88
2023-01-31T08:14:08.693Z,17.08
2023-01-31T08:16:36.480Z,6.57
2023-01-31T08:19:03.446Z,11.65
2023-01-31T08:21:29.836Z,13.85
2023-01-31T08:23:59.053Z,5.15
2023-01-31T08:26:25.413Z,9.68
2023-01-31T08:28:53.904Z,11.38
2023-01-31T08:31:22.462Z,11.68
2023-01-31T08:33:51.404Z,9.88
2023-01-31T08:36:19.248Z,10.38
2023-01-31T08:38:46.456Z,16.35
2023-01-31T08:41:13.375Z,8.32
2023-01-31T08:43:54.194Z,12.15
2023-01-31T08:46:23.518Z,10.82
2023-01-31T08:48:52.614Z,7.07
2023-01-31T08:51:19.200Z,8.13
2023-01-31T08:53:46.107Z,15.25
2023-01-31T08:56:13.256Z,7.80
2023-01-31T08:58:41.971Z,12.18
2023-01-31T09:01:09.596Z,9.23
2023-01-31T09:03:36.033Z,9.32
2023-01-31T09:06:03.323Z,10.50
2023-01-31T09:08:30.189Z,10.02
2023-01-31T09:10:57.410Z,10.50
2023-01-31T09:13:24.434Z,10.32
2023-01-31T09:16:00.218Z,10.35
2023-01-31T09:18:27.175Z,8.27
2023-01-31T09:20:53.569Z,9.75
2023-01-31T09:23:20.349Z,8.00
2023-01-31T09:25:53.781Z,8.65
2023-01-31T09:28:20.629Z,8.23
2023-01-31T09:30:47.487Z,16.63
2023-01-31T09:33:13.932Z,8.85
2023-01-31T09:35:40.254Z,11.02
2023-01-31T09:38:06.634Z,9.48
2023-01-31T09:40:34.656Z,9.40
2023-01-31T09:43:02.950Z,10.65
2023-01-31T09:45:34.142Z,10.85
2023-01-31T09:48:01.323Z,8.88
2023-01-31T09:50:36.841Z,9.93
2023-01-31T09:55:29.570Z,7.22
2023-01-31T09:57:55.882Z,9.05
2023-01-31T10:00:25.942Z,11.93
2023-01-31T10:02:52.558Z,11.68
2023-01-31T10:05:29.784Z,10.27
2023-01-31T10:08:14.716Z,9.73
2023-01-31T10:10:50.924Z,7.60
2023-01-31T10:13:20.876Z,6.50
2023-01-31T10:16:13.721Z,8.35
2023-01-31T10:18:45.315Z,8.85
2023-01-31T10:21:19.089Z,16.63
2023-01-31T10:23:49.082Z,11.50
2023-01-31T10:26:20.903Z,8.05
2023-01-31T10:29:02.271Z,11.77
2023-01-31T10:31:32.162Z,9.38
2023-01-31T10:34:07.301Z,8.07
2023-01-31T10:36:40.574Z,9.65
2023-01-31T10:39:06.935Z,13.13
2023-01-31T10:41:43.498Z,11.55
2023-01-31T10:44:18.153Z,11.07
2023-01-31T10:46:44.550Z,9.37
2023-01-31T10:49:11.063Z,13.13
2023-01-31T10:51:37.585Z,17.85
2023-01-31T10:54:09.339Z,8.05
2023-01-31T10:56:37.871Z,10.90
2023-01-31T10:59:12.163Z,10.55
2023-01-31T11:01:38.742Z,12.10
2023-01-31T11:04:26.017Z,7.57
2023-01-31T11:06:53.144Z,14.88
2023-01-31T11:09:22.065Z,11.32
2023-01-31T11:11:56.653Z,15.55
2023-01-31T11:14:23.246Z,8.95
2023-01-31T11:16:50.345Z,9.82
2023-01-31T11:19:27.553Z,14.48
2023-01-31T11:21:54.569Z,10.82
2023-01-31T11:24:25.219Z,14.25
2023-01-31T11:26:51.645Z,11.80
2023-01-31T11:29:20.665Z,11.57
2023-01-31T11:31:47.768Z,9.05
2023-01-31T11:34:24.282Z,13.85
2023-01-31T11:36:51.030Z,7.93
2023-01-31T11:39:23.106Z,15.35
2023-01-31T11:41:49.533Z,15.13
2023-01-31T11:44:19.769Z,11.52
2023-01-31T11:46:54.505Z,18.33
2023-01-31T11:49:29.322Z,11.30
2023-01-31T11:51:56.903Z,13.82
2023-01-31T11:54:26.967Z,15.13
2023-01-31T11:56:55.634Z,12.85
2023-01-31T11:59:25.395Z,8.35
2023-01-31T12:01:53.407Z,15.57
2023-01-31T12:04:32.702Z,16.75
2023-01-31T12:07:01.889Z,8.75
2023-01-31T12:09:29.826Z,13.68
2023-01-31T12:11:56.239Z,15.98
2023-01-31T12:14:25.058Z,15.50
2023-01-31T12:16:54.410Z,14.02
2023-01-31T12:19:26.222Z,7.47
2023-01-31T12:21:58.934Z,18.58
2023-01-31T12:24:25.254Z,16.23
2023-01-31T12:26:54.600Z,15.00
2023-01-31T12:29:47.588Z,14.88
2023-01-31T12:32:23.486Z,25.85
2023-01-31T12:35:00.175Z,16.20
2023-01-31T12:37:37.906Z,13.95
2023-01-31T12:40:11.921Z,17.17
2023-01-31T12:42:52.640Z,16.52
2023-01-31T12:45:37.982Z,20.08
2023-01-31T12:48:23.098Z,25.08
2023-01-31T12:50:49.884Z,21.52
2023-01-31T12:53:16.266Z,20.15
2023-01-31T12:55:48.873Z,24.85
2023-01-31T12:58:34.134Z,19.23
2023-01-31T13:01:17.708Z,14.00
2023-01-31T13:03:56.313Z,16.27
2023-01-31T13:06:34.514Z,29.50
2023-01-31T13:09:09.291Z,19.73
2023-01-31T13:11:39.399Z,17.98
2023-01-31T13:14:08.613Z,22.38
2023-01-31T13:16:40.259Z,24.33
2023-01-31T13:19:11.724Z,22.10
2023-01-31T13:21:41.633Z,24.90
2023-01-31T13:24:19.074Z,22.38
2023-01-31T13:26:48.000Z,23.17
2023-01-31T13:29:18.566Z,29.35
2023-01-31T13:31:45.083Z,21.95
2023-01-31T13:34:14.687Z,25.10
2023-01-31T13:36:59.364Z,24.58
2023-01-31T13:39:40.620Z,20.15
2023-01-31T13:42:07.037Z,20.98
2023-01-31T13:44:33.688Z,25.45
2023-01-31T13:47:13.752Z,17.02
2023-01-31T13:49:47.123Z,19.05
2023-01-31T13:52:16.753Z,28.63
2023-01-31T13:54:48.944Z,19.63
2023-01-31T13:57:26.151Z,14.90
2023-01-31T13:59:59.530Z,17.83
2023-01-31T14:02:26.647Z,15.10
2023-01-31T14:04:53.039Z,13.70
2023-01-31T14:07:20.613Z,12.85
2023-01-31T14:09:46.960Z,12.15
2023-01-31T14:12:17.092Z,11.57
2023-01-31T14:14:46.269Z,14.30
2023-01-31T14:17:12.718Z,15.20
2023-01-31T14:19:49.380Z,11.32
2023-01-31T14:22:23.224Z,10.68
2023-01-31T14:24:50.078Z,15.23
2023-01-31T14:27:21.440Z,15.25
2023-01-31T14:29:49.010Z,11.65
2023-01-31T14:32:35.627Z,18.15
2023-01-31T14:35:23.937Z,13.73
2023-01-31T14:38:08.737Z,12.45
2023-01-31T14:40:35.071Z,10.75
2023-01-31T14:43:04.526Z,12.13
2023-01-31T14:45:49.355Z,9.90
2023-01-31T14:48:15.735Z,10.10
2023-01-31T14:50:57.554Z,13.90
2023-01-31T14:53:24.133Z,12.13
2023-01-31T14:56:20.371Z,12.68
2023-01-31T15:01:14.259Z,11.20
2023-01-31T15:03:54.713Z,11.88
2023-01-31T15:06:25.983Z,12.65
2023-01-31T15:09:12.335Z,16.25
2023-01-31T15:11:42.621Z,12.57
2023-01-31T15:14:34.203Z,12.82
2023-01-31T15:17:01.870Z,13.13
2023-01-31T15:19:31.695Z,14.85
2023-01-31T15:22:04.790Z,11.77
2023-01-31T15:24:37.857Z,14.55
2023-01-31T15:27:07.667Z,16.33
2023-01-31T15:29:50.944Z,19.48
2023-01-31T15:32:22.243Z,14.93
2023-01-31T15:34:56.823Z,14.57
2023-01-31T15:37:25.533Z,13.87
2023-01-31T15:40:06.908Z,15.93
2023-01-31T15:42:34.104Z,16.30
2023-01-31T15:45:19.292Z,13.75
2023-01-31T15:47:58.291Z,10.10
2023-01-31T15:50:27.538Z,8.75
2023-01-31T15:52:55.159Z,17.52
2023-01-31T15:55:21.896Z,10.15
2023-01-31T15:57:56.654Z,18.98
2023-01-31T16:00:28.332Z,12.60
2023-01-31T16:03:00.788Z,14.20
2023-01-31T16:05:28.350Z,13.85
2023-01-31T16:07:54.702Z,10.55
2023-01-31T16:10:21.378Z,11.98
2023-01-31T16:12:48.656Z,12.93
2023-01-31T16:15:19.194Z,9.80
2023-01-31T16:17:45.945Z,13.20
2023-01-31T16:20:34.517Z,12.38
2023-01-31T16:23:02.121Z,7.80
2023-01-31T16:25:29.019Z,11.23
2023-01-31T16:27:59.592Z,8.35
2023-01-31T16:30:25.973Z,6.55
2023-01-31T16:32:52.332Z,7.57
2023-01-31T16:35:26.869Z,11.38
2023-01-31T16:38:02.045Z,5.57
2023-01-31T16:40:30.182Z,8.88
2023-01-31T16:43:08.989Z,5.15
2023-01-31T16:45:35.485Z,6.50
2023-01-31T16:48:22.208Z,7.30
2023-01-31T16:50:49.770Z,9.18
2023-01-31T16:53:25.202Z,8.35
2023-01-31T16:58:37.738Z,10.70
2023-01-31T17:01:15.642Z,5.47
2023-01-31T17:03:42.163Z,6.03
2023-01-31T17:06:08.742Z,6.28
2023-01-31T17:08:41.700Z,6.65
2023-01-31T17:11:11.943Z,8.02
2023-01-31T17:13:38.393Z,6.18
2023-01-31T17:16:12.969Z,6.57
2023-01-31T17:18:41.866Z,6.10
2023-01-31T17:21:11.513Z,5.57
2023-01-31T17:23:38.074Z,4.30
2023-01-31T17:26:04.505Z,4.68
2023-01-31T17:28:30.926Z,6.60
2023-01-31T17:30:57.489Z,4.78
2023-01-31T17:33:23.851Z,8.45
2023-01-31T17:35:51.875Z,9.07
2023-01-31T17:38:19.050Z,3.55
2023-01-31T17:40:46.295Z,4.07
2023-01-31T17:43:17.695Z,5.28
2023-01-31T17:45:44.010Z,7.18
2023-01-31T17:48:14.381Z,8.00
2023-01-31T17:50:44.668Z,4.63
2023-01-31T17:53:12.600Z,5.80
2023-01-31T17:55:38.967Z,6.05
2023-01-31T17:58:05.530Z,4.78
2023-01-31T18:00:31.901Z,4.20
2023-01-31T18:02:58.516Z,4.47
2023-01-31T18:05:38.271Z,3.05
2023-01-31T18:08:05.713Z,4.97
2023-01-31T18:10:32.138Z,3.85
2023-01-31T18:12:58.470Z,4.13
2023-01-31T18:15:24.931Z,4.80
2023-01-31T18:17:51.273Z,3.88
2023-01-31T18:20:19.211Z,5.45
2023-01-31T18:22:46.058Z,3.78
2023-01-31T18:25:12.552Z,5.25
2023-01-31T18:27:38.891Z,6.15
2023-01-31T18:30:06.222Z,6.70
2023-01-31T18:32:33.126Z,4.20
2023-01-31T18:34:59.704Z,5.30
2023-01-31T18:37:26.082Z,3.10
2023-01-31T18:39:52.765Z,4.20
2023-01-31T18:42:20.038Z,6.10
2023-01-31T18:44:47.095Z,5.22
2023-01-31T18:47:16.598Z,3.92
2023-01-31T18:49:43.151Z,4.15
2023-01-31T18:52:09.848Z,6.20
2023-01-31T18:54:37.519Z,5.80
2023-01-31T18:57:04.048Z,5.80
2023-01-31T18:59:30.367Z,5.00
2023-01-31T19:01:56.747Z,5.35
2023-01-31T19:04:23.194Z,2.90
2023-01-31T19:06:51.414Z,3.38
2023-01-31T19:09:17.815Z,2.70
2023-01-31T19:11:45.142Z,4.78
2023-01-31T19:14:12.645Z,7.68
2023-01-31T19:16:40.563Z,5.05
2023-01-31T19:19:07.720Z,4.03
2023-01-31T19:21:35.048Z,3.15
2023-01-31T19:24:04.676Z,4.38
2023-01-31T19:26:33.624Z,2.50
2023-01-31T19:29:01.296Z,4.80
2023-01-31T19:31:31.148Z,3.58
2023-01-31T19:33:58.831Z,3.70
2023-01-31T19:36:29.639Z,2.95
2023-01-31T19:38:56.691Z,4.25
2023-01-31T19:41:25.017Z,3.17
2023-01-31T19:43:53.064Z,2.33
2023-01-31T19:46:20.866Z,3.05
2023-01-31T19:48:47.574Z,3.88
2023-01-31T19:51:16.443Z,3.05
2023-01-31T19:53:43.535Z,3.65
2023-01-31T19:56:11.866Z,2.95
2023-01-31T19:58:38.354Z,5.25
2023-01-31T20:01:06.219Z,5.05
2023-01-31T20:03:32.672Z,5.30
2023-01-31T20:06:03.219Z,4.47
2023-01-31T20:08:30.818Z,3.90
2023-01-31T20:10:57.577Z,3.42
2023-01-31T20:13:24.409Z,2.80
2023-01-31T20:15:57.784Z,4.07
2023-01-31T20:18:25.279Z,2.25
2023-01-31T20:20:51.995Z,4.03
2023-01-31T20:23:18.372Z,3.30
2023-01-31T20:25:47.222Z,4.13
2023-01-31T20:28:13.565Z,3.45
2023-01-31T20:30:40.136Z,3.33
2023-01-31T20:33:06.544Z,4.60
2023-01-31T20:35:32.890Z,3.50
2023-01-31T20:37:59.252Z,5.60
2023-01-31T20:40:25.629Z,3.25
2023-01-31T20:42:52.149Z,3.65
2023-01-31T20:45:18.520Z,3.55
2023-01-31T20:47:44.885Z,3.45
2023-01-31T20:50:11.262Z,3.75
2023-01-31T20:52:37.629Z,4.07
2023-01-31T20:55:04.274Z,4.05
2023-01-31T20:57:30.619Z,2.83
2023-01-31T20:59:57.000Z,4.13
2023-01-31T21:02:23.356Z,2.85
2023-01-31T21:04:49.772Z,2.72
2023-01-31T21:07:16.166Z,3.70
2023-01-31T21:09:42.516Z,6.15
2023-01-31T21:12:09.025Z,3.10
2023-01-31T21:14:35.326Z,3.72
2023-01-31T21:17:02.911Z,13.05
2023-01-31T21:19:29.561Z,4.75
2023-01-31T21:21:56.105Z,3.05
2023-01-31T21:24:22.450Z,3.95
2023-01-31T21:26:48.892Z,6.28
2023-01-31T21:29:15.324Z,5.60
2023-01-31T21:31:41.739Z,4.15
2023-01-31T21:34:08.403Z,3.88
2023-01-31T21:36:36.234Z,6.95
2023-01-31T21:39:02.935Z,4.13
2023-01-31T21:41:48.103Z,5.57
2023-01-31T21:44:14.468Z,4.90
2023-01-31T21:46:40.884Z,5.10
2023-01-31T21:49:08.481Z,4.72
2023-01-31T21:51:34.955Z,3.85
2023-01-31T21:54:07.570Z,7.68
2023-01-31T21:56:34.011Z,5.60
2023-01-31T21:59:00.428Z,6.07
2023-01-31T22:01:32.979Z,7.82
2023-01-31T22:04:01.147Z,7.70
2023-01-31T22:06:50.722Z,4.25
2023-01-31T22:09:17.564Z,7.70
2023-01-31T22:11:44.410Z,5.10
2023-01-31T22:14:12.188Z,11.30
2023-01-31T22:16:45.935Z,10.20
2023-01-31T22:19:13.019Z,11.13
2023-01-31T22:21:40.362Z,7.03
2023-01-31T22:24:07.852Z,10.07
2023-01-31T22:26:35.741Z,8.23
2023-01-31T22:29:03.647Z,14.52
2023-01-31T22:31:30.503Z,8.25
2023-01-31T22:33:57.098Z,8.63
2023-01-31T22:36:26.411Z,7.82
2023-01-31T22:38:53.054Z,7.03
2023-01-31T22:41:20.288Z,5.47
2023-01-31T22:43:48.067Z,6.70
2023-01-31T22:46:16.322Z,12.32
2023-01-31T22:48:43.136Z,11.05
2023-01-31T22:51:14.196Z,11.05
2023-01-31T22:53:40.907Z,9.50
2023-01-31T22:56:08.794Z,8.38
2023-01-31T22:58:35.161Z,10.02
2023-01-31T23:01:01.715Z,6.65
2023-01-31T23:03:28.341Z,6.53
2023-01-31T23:05:55.032Z,6.90
2023-01-31T23:08:21.416Z,12.20
2023-01-31T23:10:47.863Z,12.25
2023-01-31T23:13:14.311Z,7.80
2023-01-31T23:15:40.778Z,9.95
2023-01-31T23:18:07.185Z,8.30
2023-01-31T23:20:34.077Z,14.70
2023-01-31T23:23:00.443Z,9.63
2023-01-31T23:25:28.219Z,12.20
2023-01-31T23:27:55.512Z,8.32
2023-01-31T23:30:22.224Z,10.13
2023-01-31T23:32:48.994Z,6.95
2023-01-31T23:35:15.740Z,8.32
2023-01-31T23:37:42.490Z,6.70
2023-01-31T23:40:09.283Z,11.32
2023-01-31T23:42:35.732Z,8.52
2023-01-31T23:45:02.177Z,12.23
2023-01-31T23:47:28.579Z,8.13
2023-01-31T23:49:55.000Z,13.48
2023-01-31T23:52:21.382Z,9.45
2023-01-31T23:54:47.725Z,10.82
2023-01-31T23:57:14.069Z,8.95
2023-01-31T23:59:40.446Z,8.52
